sensor_id;sensor_type;location;lat;lon;timestamp;P1;durP1;ratioP1;P2;durP2;ratioP2
43801;SDS011;29429;51.074;13.764;2023-06-22T00:01:25;11.48;;;7.30;;
43801;SDS011;29429;51.074;13.764;2023-06-22T00:03:52;8.48;;;7.57;;
43801;SDS011;29429;51.074;13.764;2023-06-22T00:06:20;8.23;;;7.43;;
43801;SDS011;29429;51.074;13.764;2023-06-22T00:08:48;8.48;;;7.13;;
43801;SDS011;29429;51.074;13.764;2023-06-22T00:11:15;7.63;;;6.72;;
43801;SDS011;29429;51.074;13.764;2023-06-22T00:13:43;9.85;;;7.38;;
43801;SDS011;29429;51.074;13.764;2023-06-22T00:16:10;9.73;;;8.35;;
43801;SDS011;29429;51.074;13.764;2023-06-22T00:18:38;8.95;;;7.68;;
43801;SDS011;29429;51.074;13.764;2023-06-22T00:21:05;9.73;;;8.13;;
43801;SDS011;29429;51.074;13.764;2023-06-22T00:23:33;10.65;;;8.90;;
43801;SDS011;29429;51.074;13.764;2023-06-22T00:26:01;8.77;;;7.82;;
43801;SDS011;29429;51.074;13.764;2023-06-22T00:28:28;11.02;;;8.75;;
43801;SDS011;29429;51.074;13.764;2023-06-22T00:30:56;10.45;;;7.70;;
43801;SDS011;29429;51.074;13.764;2023-06-22T00:33:24;8.57;;;7.18;;
43801;SDS011;29429;51.074;13.764;2023-06-22T00:35:52;12.48;;;8.23;;
43801;SDS011;29429;51.074;13.764;2023-06-22T00:38:20;10.40;;;8.05;;
43801;SDS011;29429;51.074;13.764;2023-06-22T00:40:47;8.80;;;7.60;;
43801;SDS011;29429;51.074;13.764;2023-06-22T00:43:15;9.82;;;7.63;;
43801;SDS011;29429;51.074;13.764;2023-06-22T00:45:42;8.15;;;7.30;;
43801;SDS011;29429;51.074;13.764;2023-06-22T00:48:09;9.40;;;8.40;;
43801;SDS011;29429;51.074;13.764;2023-06-22T00:50:38;11.82;;;8.10;;
43801;SDS011;29429;51.074;13.764;2023-06-22T00:53:07;11.75;;;8.77;;
43801;SDS011;29429;51.074;13.764;2023-06-22T00:55:38;10.40;;;8.25;;
43801;SDS011;29429;51.074;13.764;2023-06-22T00:58:11;10.17;;;7.50;;
43801;SDS011;29429;51.074;13.764;2023-06-22T01:00:40;9.23;;;8.23;;
43801;SDS011;29429;51.074;13.764;2023-06-22T01:03:08;9.18;;;7.68;;
43801;SDS011;29429;51.074;13.764;2023-06-22T01:05:37;10.02;;;7.88;;
43801;SDS011;29429;51.074;13.764;2023-06-22T01:16:30;8.35;;;7.32;;
43801;SDS011;29429;51.074;13.764;2023-06-22T01:19:00;9.32;;;8.15;;
43801;SDS011;29429;51.074;13.764;2023-06-22T01:21:36;8.95;;;7.60;;
43801;SDS011;29429;51.074;13.764;2023-06-22T01:24:23;8.82;;;7.90;;
43801;SDS011;29429;51.074;13.764;2023-06-22T01:29:39;9.82;;;8.00;;
43801;SDS011;29429;51.074;13.764;2023-06-22T01:32:09;10.98;;;8.52;;
43801;SDS011;29429;51.074;13.764;2023-06-22T01:34:38;9.13;;;8.20;;
43801;SDS011;29429;51.074;13.764;2023-06-22T01:37:06;11.82;;;8.23;;
43801;SDS011;29429;51.074;13.764;2023-06-22T01:39:34;9.27;;;8.18;;
43801;SDS011;29429;51.074;13.764;2023-06-22T01:42:02;10.02;;;8.40;;
43801;SDS011;29429;51.074;13.764;2023-06-22T01:44:31;8.80;;;7.93;;
43801;SDS011;29429;51.074;13.764;2023-06-22T01:47:00;10.25;;;8.65;;
43801;SDS011;29429;51.074;13.764;2023-06-22T01:49:28;8.93;;;7.82;;
43801;SDS011;29429;51.074;13.764;2023-06-22T01:51:56;10.02;;;8.73;;
43801;SDS011;29429;51.074;13.764;2023-06-22T01:54:24;11.00;;;8.20;;
43801;SDS011;29429;51.074;13.764;2023-06-22T01:56:51;9.65;;;7.78;;
43801;SDS011;29429;51.074;13.764;2023-06-22T02:02:53;11.88;;;9.40;;
43801;SDS011;29429;51.074;13.764;2023-06-22T02:05:34;9.48;;;8.45;;
43801;SDS011;29429;51.074;13.764;2023-06-22T02:08:20;10.52;;;8.93;;
43801;SDS011;29429;51.074;13.764;2023-06-22T02:10:51;10.73;;;9.05;;
43801;SDS011;29429;51.074;13.764;2023-06-22T02:13:19;11.38;;;9.10;;
43801;SDS011;29429;51.074;13.764;2023-06-22T02:15:47;9.85;;;8.85;;
43801;SDS011;29429;51.074;13.764;2023-06-22T02:18:15;10.98;;;8.35;;
43801;SDS011;29429;51.074;13.764;2023-06-22T02:20:42;11.75;;;9.43;;
43801;SDS011;29429;51.074;13.764;2023-06-22T02:23:09;12.48;;;9.23;;
43801;SDS011;29429;51.074;13.764;2023-06-22T02:25:37;10.27;;;9.15;;
43801;SDS011;29429;51.074;13.764;2023-06-22T02:28:05;11.77;;;9.32;;
43801;SDS011;29429;51.074;13.764;2023-06-22T02:30:33;11.57;;;9.23;;
43801;SDS011;29429;51.074;13.764;2023-06-22T02:33:00;11.35;;;8.63;;
43801;SDS011;29429;51.074;13.764;2023-06-22T02:35:28;12.90;;;9.10;;
43801;SDS011;29429;51.074;13.764;2023-06-22T02:38:02;10.55;;;9.02;;
43801;SDS011;29429;51.074;13.764;2023-06-22T02:40:30;10.82;;;9.48;;
43801;SDS011;29429;51.074;13.764;2023-06-22T02:42:58;11.15;;;9.25;;
43801;SDS011;29429;51.074;13.764;2023-06-22T02:45:28;10.35;;;9.32;;
43801;SDS011;29429;51.074;13.764;2023-06-22T02:47:56;11.80;;;9.73;;
43801;SDS011;29429;51.074;13.764;2023-06-22T02:50:24;10.77;;;9.07;;
43801;SDS011;29429;51.074;13.764;2023-06-22T02:52:52;9.77;;;8.27;;
43801;SDS011;29429;51.074;13.764;2023-06-22T02:55:20;11.10;;;9.02;;
43801;SDS011;29429;51.074;13.764;2023-06-22T02:57:53;10.63;;;8.13;;
43801;SDS011;29429;51.074;13.764;2023-06-22T03:00:21;11.60;;;9.52;;
43801;SDS011;29429;51.074;13.764;2023-06-22T03:02:49;10.73;;;9.07;;
43801;SDS011;29429;51.074;13.764;2023-06-22T03:05:18;13.13;;;10.25;;
43801;SDS011;29429;51.074;13.764;2023-06-22T03:07:46;10.93;;;9.77;;
43801;SDS011;29429;51.074;13.764;2023-06-22T03:10:14;10.88;;;9.48;;
43801;SDS011;29429;51.074;13.764;2023-06-22T03:12:42;10.50;;;9.00;;
43801;SDS011;29429;51.074;13.764;2023-06-22T03:15:11;9.90;;;8.45;;
43801;SDS011;29429;51.074;13.764;2023-06-22T03:17:39;10.65;;;9.18;;
43801;SDS011;29429;51.074;13.764;2023-06-22T03:20:08;11.25;;;9.38;;
43801;SDS011;29429;51.074;13.764;2023-06-22T03:22:37;12.13;;;9.70;;
43801;SDS011;29429;51.074;13.764;2023-06-22T03:25:05;15.00;;;10.40;;
43801;SDS011;29429;51.074;13.764;2023-06-22T03:27:38;12.05;;;10.30;;
43801;SDS011;29429;51.074;13.764;2023-06-22T03:30:07;10.60;;;9.40;;
43801;SDS011;29429;51.074;13.764;2023-06-22T03:32:36;11.32;;;9.23;;
43801;SDS011;29429;51.074;13.764;2023-06-22T03:35:05;10.85;;;9.20;;
43801;SDS011;29429;51.074;13.764;2023-06-22T03:37:35;10.50;;;9.18;;
43801;SDS011;29429;51.074;13.764;2023-06-22T03:40:03;11.07;;;9.30;;
43801;SDS011;29429;51.074;13.764;2023-06-22T03:42:34;10.05;;;8.90;;
43801;SDS011;29429;51.074;13.764;2023-06-22T03:45:02;10.68;;;9.57;;
43801;SDS011;29429;51.074;13.764;2023-06-22T03:47:31;11.32;;;9.20;;
43801;SDS011;29429;51.074;13.764;2023-06-22T03:50:00;11.70;;;9.90;;
43801;SDS011;29429;51.074;13.764;2023-06-22T03:52:29;10.43;;;9.35;;
43801;SDS011;29429;51.074;13.764;2023-06-22T03:54:57;10.77;;;9.23;;
43801;SDS011;29429;51.074;13.764;2023-06-22T03:57:24;9.00;;;8.10;;
43801;SDS011;29429;51.074;13.764;2023-06-22T03:59:54;9.68;;;8.30;;
43801;SDS011;29429;51.074;13.764;2023-06-22T04:02:22;10.70;;;8.75;;
43801;SDS011;29429;51.074;13.764;2023-06-22T04:04:50;8.88;;;7.97;;
43801;SDS011;29429;51.074;13.764;2023-06-22T04:07:17;10.13;;;9.00;;
43801;SDS011;29429;51.074;13.764;2023-06-22T04:09:45;8.60;;;7.70;;
43801;SDS011;29429;51.074;13.764;2023-06-22T04:12:12;10.77;;;8.75;;
43801;SDS011;29429;51.074;13.764;2023-06-22T04:14:40;9.80;;;8.05;;
43801;SDS011;29429;51.074;13.764;2023-06-22T04:17:07;9.65;;;8.20;;
43801;SDS011;29429;51.074;13.764;2023-06-22T04:19:35;7.85;;;7.05;;
43801;SDS011;29429;51.074;13.764;2023-06-22T04:22:02;8.52;;;7.60;;
43801;SDS011;29429;51.074;13.764;2023-06-22T04:24:30;9.75;;;8.52;;
43801;SDS011;29429;51.074;13.764;2023-06-22T04:26:57;11.95;;;8.60;;
43801;SDS011;29429;51.074;13.764;2023-06-22T04:29:29;9.52;;;8.13;;
43801;SDS011;29429;51.074;13.764;2023-06-22T04:31:57;9.10;;;8.20;;
43801;SDS011;29429;51.074;13.764;2023-06-22T04:34:26;9.23;;;8.23;;
43801;SDS011;29429;51.074;13.764;2023-06-22T04:36:53;10.00;;;8.07;;
43801;SDS011;29429;51.074;13.764;2023-06-22T04:39:21;10.27;;;8.60;;
43801;SDS011;29429;51.074;13.764;2023-06-22T04:41:48;9.70;;;8.05;;
43801;SDS011;29429;51.074;13.764;2023-06-22T04:44:17;9.50;;;8.48;;
43801;SDS011;29429;51.074;13.764;2023-06-22T04:46:51;10.88;;;8.43;;
43801;SDS011;29429;51.074;13.764;2023-06-22T04:49:20;8.75;;;7.85;;
43801;SDS011;29429;51.074;13.764;2023-06-22T04:51:48;10.88;;;8.20;;
43801;SDS011;29429;51.074;13.764;2023-06-22T04:54:18;10.75;;;8.38;;
43801;SDS011;29429;51.074;13.764;2023-06-22T04:56:45;11.15;;;8.85;;
43801;SDS011;29429;51.074;13.764;2023-06-22T04:59:14;9.50;;;7.50;;
43801;SDS011;29429;51.074;13.764;2023-06-22T05:01:45;8.95;;;7.75;;
43801;SDS011;29429;51.074;13.764;2023-06-22T05:04:12;10.43;;;9.32;;
43801;SDS011;29429;51.074;13.764;2023-06-22T05:06:40;13.70;;;10.00;;
43801;SDS011;29429;51.074;13.764;2023-06-22T05:09:07;11.18;;;9.07;;
43801;SDS011;29429;51.074;13.764;2023-06-22T05:11:35;10.68;;;8.90;;
43801;SDS011;29429;51.074;13.764;2023-06-22T05:14:02;11.27;;;8.52;;
43801;SDS011;29429;51.074;13.764;2023-06-22T05:16:29;11.20;;;8.07;;
43801;SDS011;29429;51.074;13.764;2023-06-22T05:18:57;8.85;;;7.95;;
43801;SDS011;29429;51.074;13.764;2023-06-22T05:21:25;9.18;;;8.18;;
43801;SDS011;29429;51.074;13.764;2023-06-22T05:23:53;11.70;;;8.82;;
43801;SDS011;29429;51.074;13.764;2023-06-22T05:26:22;11.68;;;8.95;;
43801;SDS011;29429;51.074;13.764;2023-06-22T05:28:50;9.32;;;8.23;;
43801;SDS011;29429;51.074;13.764;2023-06-22T05:31:17;10.50;;;8.07;;
43801;SDS011;29429;51.074;13.764;2023-06-22T05:33:49;9.93;;;8.38;;
43801;SDS011;29429;51.074;13.764;2023-06-22T05:36:19;9.30;;;8.27;;
43801;SDS011;29429;51.074;13.764;2023-06-22T05:38:47;9.05;;;7.65;;
43801;SDS011;29429;51.074;13.764;2023-06-22T05:41:15;8.73;;;7.75;;
43801;SDS011;29429;51.074;13.764;2023-06-22T05:43:42;9.13;;;7.95;;
43801;SDS011;29429;51.074;13.764;2023-06-22T05:46:09;8.50;;;7.68;;
43801;SDS011;29429;51.074;13.764;2023-06-22T05:48:37;8.75;;;7.75;;
43801;SDS011;29429;51.074;13.764;2023-06-22T05:51:04;8.63;;;7.50;;
43801;SDS011;29429;51.074;13.764;2023-06-22T05:53:32;9.85;;;8.23;;
43801;SDS011;29429;51.074;13.764;2023-06-22T05:55:59;9.82;;;6.85;;
43801;SDS011;29429;51.074;13.764;2023-06-22T05:58:26;8.30;;;7.50;;
43801;SDS011;29429;51.074;13.764;2023-06-22T06:00:54;9.65;;;8.63;;
43801;SDS011;29429;51.074;13.764;2023-06-22T06:03:21;8.07;;;7.28;;
43801;SDS011;29429;51.074;13.764;2023-06-22T06:05:49;8.25;;;7.25;;
43801;SDS011;29429;51.074;13.764;2023-06-22T06:08:16;8.50;;;7.70;;
43801;SDS011;29429;51.074;13.764;2023-06-22T06:10:44;8.85;;;7.30;;
43801;SDS011;29429;51.074;13.764;2023-06-22T06:13:11;8.40;;;7.60;;
43801;SDS011;29429;51.074;13.764;2023-06-22T06:15:39;9.05;;;8.00;;
43801;SDS011;29429;51.074;13.764;2023-06-22T06:18:13;10.18;;;7.78;;
43801;SDS011;29429;51.074;13.764;2023-06-22T06:20:41;10.85;;;8.05;;
43801;SDS011;29429;51.074;13.764;2023-06-22T06:23:08;9.27;;;8.13;;
43801;SDS011;29429;51.074;13.764;2023-06-22T06:25:36;7.53;;;6.72;;
43801;SDS011;29429;51.074;13.764;2023-06-22T06:28:06;8.95;;;7.20;;
43801;SDS011;29429;51.074;13.764;2023-06-22T06:30:34;8.00;;;7.18;;
43801;SDS011;29429;51.074;13.764;2023-06-22T06:33:03;7.85;;;7.10;;
43801;SDS011;29429;51.074;13.764;2023-06-22T06:35:35;8.50;;;7.00;;
43801;SDS011;29429;51.074;13.764;2023-06-22T06:38:04;8.43;;;7.03;;
43801;SDS011;29429;51.074;13.764;2023-06-22T06:40:35;8.75;;;7.38;;
43801;SDS011;29429;51.074;13.764;2023-06-22T06:43:02;7.10;;;6.32;;
43801;SDS011;29429;51.074;13.764;2023-06-22T06:45:30;8.02;;;7.22;;
43801;SDS011;29429;51.074;13.764;2023-06-22T06:47:59;9.55;;;7.20;;
43801;SDS011;29429;51.074;13.764;2023-06-22T06:50:27;9.40;;;7.68;;
43801;SDS011;29429;51.074;13.764;2023-06-22T06:52:55;9.35;;;6.85;;
43801;SDS011;29429;51.074;13.764;2023-06-22T06:55:25;7.88;;;6.53;;
43801;SDS011;29429;51.074;13.764;2023-06-22T06:57:53;7.63;;;6.75;;
43801;SDS011;29429;51.074;13.764;2023-06-22T07:00:20;8.45;;;7.43;;
43801;SDS011;29429;51.074;13.764;2023-06-22T07:02:48;7.35;;;6.47;;
43801;SDS011;29429;51.074;13.764;2023-06-22T07:05:16;7.90;;;7.10;;
43801;SDS011;29429;51.074;13.764;2023-06-22T07:07:43;7.95;;;6.85;;
43801;SDS011;29429;51.074;13.764;2023-06-22T07:10:12;9.25;;;7.40;;
43801;SDS011;29429;51.074;13.764;2023-06-22T07:12:47;8.52;;;7.03;;
43801;SDS011;29429;51.074;13.764;2023-06-22T07:15:15;8.38;;;7.45;;
43801;SDS011;29429;51.074;13.764;2023-06-22T07:17:46;8.55;;;7.63;;
43801;SDS011;29429;51.074;13.764;2023-06-22T07:20:13;8.30;;;7.38;;
43801;SDS011;29429;51.074;13.764;2023-06-22T07:22:41;8.88;;;7.80;;
43801;SDS011;29429;51.074;13.764;2023-06-22T07:25:11;9.35;;;8.25;;
43801;SDS011;29429;51.074;13.764;2023-06-22T07:27:45;8.55;;;7.65;;
43801;SDS011;29429;51.074;13.764;2023-06-22T07:30:23;8.20;;;7.28;;
43801;SDS011;29429;51.074;13.764;2023-06-22T07:32:50;8.93;;;8.02;;
43801;SDS011;29429;51.074;13.764;2023-06-22T07:35:18;9.43;;;8.25;;
43801;SDS011;29429;51.074;13.764;2023-06-22T07:37:45;8.55;;;7.65;;
43801;SDS011;29429;51.074;13.764;2023-06-22T07:40:13;9.68;;;7.53;;
43801;SDS011;29429;51.074;13.764;2023-06-22T07:42:40;9.20;;;8.13;;
43801;SDS011;29429;51.074;13.764;2023-06-22T07:45:07;8.93;;;8.02;;
43801;SDS011;29429;51.074;13.764;2023-06-22T07:47:35;9.10;;;7.65;;
43801;SDS011;29429;51.074;13.764;2023-06-22T07:50:03;8.27;;;7.53;;
43801;SDS011;29429;51.074;13.764;2023-06-22T07:52:31;8.52;;;7.72;;
43801;SDS011;29429;51.074;13.764;2023-06-22T07:54:59;8.15;;;7.40;;
43801;SDS011;29429;51.074;13.764;2023-06-22T07:57:26;8.15;;;7.35;;
43801;SDS011;29429;51.074;13.764;2023-06-22T08:00:04;9.38;;;8.40;;
43801;SDS011;29429;51.074;13.764;2023-06-22T08:02:42;9.30;;;8.40;;
43801;SDS011;29429;51.074;13.764;2023-06-22T08:05:11;8.52;;;7.03;;
43801;SDS011;29429;51.074;13.764;2023-06-22T08:08:01;9.05;;;8.15;;
43801;SDS011;29429;51.074;13.764;2023-06-22T08:10:28;8.88;;;8.00;;
43801;SDS011;29429;51.074;13.764;2023-06-22T08:12:56;7.43;;;6.70;;
43801;SDS011;29429;51.074;13.764;2023-06-22T08:15:25;8.43;;;7.57;;
43801;SDS011;29429;51.074;13.764;2023-06-22T08:17:54;8.80;;;7.90;;
43801;SDS011;29429;51.074;13.764;2023-06-22T08:20:22;7.63;;;6.65;;
43801;SDS011;29429;51.074;13.764;2023-06-22T08:22:49;7.80;;;7.00;;
43801;SDS011;29429;51.074;13.764;2023-06-22T08:25:17;7.00;;;6.30;;
43801;SDS011;29429;51.074;13.764;2023-06-22T08:27:47;6.88;;;5.78;;
43801;SDS011;29429;51.074;13.764;2023-06-22T08:30:15;6.60;;;6.00;;
43801;SDS011;29429;51.074;13.764;2023-06-22T08:32:44;6.60;;;5.90;;
43801;SDS011;29429;51.074;13.764;2023-06-22T08:35:12;7.63;;;6.22;;
43801;SDS011;29429;51.074;13.764;2023-06-22T08:37:40;6.57;;;5.97;;
43801;SDS011;29429;51.074;13.764;2023-06-22T08:40:08;6.68;;;6.05;;
43801;SDS011;29429;51.074;13.764;2023-06-22T08:42:37;7.13;;;6.00;;
43801;SDS011;29429;51.074;13.764;2023-06-22T08:45:08;6.25;;;5.65;;
43801;SDS011;29429;51.074;13.764;2023-06-22T08:47:36;6.07;;;5.47;;
43801;SDS011;29429;51.074;13.764;2023-06-22T08:50:04;6.57;;;5.65;;
43801;SDS011;29429;51.074;13.764;2023-06-22T08:52:32;7.20;;;5.57;;
43801;SDS011;29429;51.074;13.764;2023-06-22T08:55:00;6.80;;;5.90;;
43801;SDS011;29429;51.074;13.764;2023-06-22T08:57:28;7.35;;;6.13;;
43801;SDS011;29429;51.074;13.764;2023-06-22T08:59:56;5.90;;;5.30;;
43801;SDS011;29429;51.074;13.764;2023-06-22T09:02:25;5.57;;;5.05;;
43801;SDS011;29429;51.074;13.764;2023-06-22T09:04:57;6.25;;;5.65;;
43801;SDS011;29429;51.074;13.764;2023-06-22T09:07:25;6.53;;;5.85;;
43801;SDS011;29429;51.074;13.764;2023-06-22T09:09:53;6.47;;;5.88;;
43801;SDS011;29429;51.074;13.764;2023-06-22T09:12:21;6.35;;;5.35;;
43801;SDS011;29429;51.074;13.764;2023-06-22T09:14:52;6.70;;;6.00;;
43801;SDS011;29429;51.074;13.764;2023-06-22T09:17:20;5.68;;;5.18;;
43801;SDS011;29429;51.074;13.764;2023-06-22T09:19:48;6.05;;;5.45;;
43801;SDS011;29429;51.074;13.764;2023-06-22T09:22:15;5.32;;;4.82;;
43801;SDS011;29429;51.074;13.764;2023-06-22T09:24:43;5.82;;;4.90;;
43801;SDS011;29429;51.074;13.764;2023-06-22T09:27:11;5.90;;;5.30;;
43801;SDS011;29429;51.074;13.764;2023-06-22T09:29:38;6.25;;;5.65;;
43801;SDS011;29429;51.074;13.764;2023-06-22T09:32:06;5.78;;;5.22;;
43801;SDS011;29429;51.074;13.764;2023-06-22T09:34:34;5.97;;;5.20;;
43801;SDS011;29429;51.074;13.764;2023-06-22T09:37:01;5.57;;;5.07;;
43801;SDS011;29429;51.074;13.764;2023-06-22T09:39:29;6.07;;;5.40;;
43801;SDS011;29429;51.074;13.764;2023-06-22T09:41:57;5.63;;;5.13;;
43801;SDS011;29429;51.074;13.764;2023-06-22T09:44:26;5.68;;;5.18;;
43801;SDS011;29429;51.074;13.764;2023-06-22T09:46:53;6.75;;;5.50;;
43801;SDS011;29429;51.074;13.764;2023-06-22T09:49:21;5.70;;;5.20;;
43801;SDS011;29429;51.074;13.764;2023-06-22T09:52:07;5.93;;;5.32;;
43801;SDS011;29429;51.074;13.764;2023-06-22T09:54:34;6.60;;;5.90;;
43801;SDS011;29429;51.074;13.764;2023-06-22T09:57:02;6.53;;;5.93;;
43801;SDS011;29429;51.074;13.764;2023-06-22T09:59:29;6.82;;;6.22;;
43801;SDS011;29429;51.074;13.764;2023-06-22T10:01:57;6.07;;;5.57;;
43801;SDS011;29429;51.074;13.764;2023-06-22T10:04:24;6.43;;;5.82;;
43801;SDS011;29429;51.074;13.764;2023-06-22T10:06:53;6.60;;;6.00;;
43801;SDS011;29429;51.074;13.764;2023-06-22T10:09:20;6.45;;;5.85;;
43801;SDS011;29429;51.074;13.764;2023-06-22T10:11:48;7.65;;;6.75;;
43801;SDS011;29429;51.074;13.764;2023-06-22T10:14:15;6.97;;;6.22;;
43801;SDS011;29429;51.074;13.764;2023-06-22T10:16:43;6.93;;;6.28;;
43801;SDS011;29429;51.074;13.764;2023-06-22T10:19:11;6.35;;;5.80;;
43801;SDS011;29429;51.074;13.764;2023-06-22T10:21:38;6.80;;;6.13;;
43801;SDS011;29429;51.074;13.764;2023-06-22T10:24:06;7.40;;;6.72;;
43801;SDS011;29429;51.074;13.764;2023-06-22T10:26:33;6.93;;;6.22;;
43801;SDS011;29429;51.074;13.764;2023-06-22T10:29:01;6.75;;;6.05;;
43801;SDS011;29429;51.074;13.764;2023-06-22T10:31:32;7.38;;;6.43;;
43801;SDS011;29429;51.074;13.764;2023-06-22T10:34:00;7.22;;;6.53;;
43801;SDS011;29429;51.074;13.764;2023-06-22T10:36:27;6.53;;;5.88;;
43801;SDS011;29429;51.074;13.764;2023-06-22T10:38:55;7.50;;;6.28;;
43801;SDS011;29429;51.074;13.764;2023-06-22T10:41:25;6.75;;;6.15;;
43801;SDS011;29429;51.074;13.764;2023-06-22T10:43:56;8.32;;;6.88;;
43801;SDS011;29429;51.074;13.764;2023-06-22T10:46:24;6.97;;;6.28;;
43801;SDS011;29429;51.074;13.764;2023-06-22T10:48:52;7.18;;;6.57;;
43801;SDS011;29429;51.074;13.764;2023-06-22T10:51:25;7.93;;;7.13;;
43801;SDS011;29429;51.074;13.764;2023-06-22T10:53:54;6.50;;;5.88;;
43801;SDS011;29429;51.074;13.764;2023-06-22T10:56:22;7.35;;;6.65;;
43801;SDS011;29429;51.074;13.764;2023-06-22T10:58:49;6.63;;;5.80;;
43801;SDS011;29429;51.074;13.764;2023-06-22T11:01:17;7.57;;;6.80;;
43801;SDS011;29429;51.074;13.764;2023-06-22T11:04:00;6.88;;;6.15;;
43801;SDS011;29429;51.074;13.764;2023-06-22T11:06:28;6.55;;;5.95;;
43801;SDS011;29429;51.074;13.764;2023-06-22T11:08:56;6.65;;;5.93;;
43801;SDS011;29429;51.074;13.764;2023-06-22T11:11:42;6.28;;;5.72;;
43801;SDS011;29429;51.074;13.764;2023-06-22T11:14:10;6.65;;;5.90;;
43801;SDS011;29429;51.074;13.764;2023-06-22T11:16:37;5.95;;;5.45;;
43801;SDS011;29429;51.074;13.764;2023-06-22T11:19:05;7.80;;;6.32;;
43801;SDS011;29429;51.074;13.764;2023-06-22T11:21:33;6.95;;;6.25;;
43801;SDS011;29429;51.074;13.764;2023-06-22T11:24:00;6.45;;;5.68;;
43801;SDS011;29429;51.074;13.764;2023-06-22T11:26:29;6.20;;;5.60;;
43801;SDS011;29429;51.074;13.764;2023-06-22T11:28:58;6.80;;;6.10;;
43801;SDS011;29429;51.074;13.764;2023-06-22T11:31:25;7.30;;;6.60;;
43801;SDS011;29429;51.074;13.764;2023-06-22T11:33:53;6.78;;;6.00;;
43801;SDS011;29429;51.074;13.764;2023-06-22T11:36:21;6.95;;;5.90;;
43801;SDS011;29429;51.074;13.764;2023-06-22T11:38:49;7.68;;;6.22;;
43801;SDS011;29429;51.074;13.764;2023-06-22T11:41:16;7.45;;;6.18;;
43801;SDS011;29429;51.074;13.764;2023-06-22T11:43:44;5.78;;;5.28;;
43801;SDS011;29429;51.074;13.764;2023-06-22T11:46:11;6.25;;;5.68;;
43801;SDS011;29429;51.074;13.764;2023-06-22T11:48:39;6.78;;;6.18;;
43801;SDS011;29429;51.074;13.764;2023-06-22T11:51:06;8.93;;;5.80;;
43801;SDS011;29429;51.074;13.764;2023-06-22T11:53:34;6.25;;;5.65;;
43801;SDS011;29429;51.074;13.764;2023-06-22T11:56:02;6.32;;;5.72;;
43801;SDS011;29429;51.074;13.764;2023-06-22T11:58:29;7.18;;;6.47;;
43801;SDS011;29429;51.074;13.764;2023-06-22T12:00:57;6.97;;;6.30;;
43801;SDS011;29429;51.074;13.764;2023-06-22T12:03:25;7.15;;;6.20;;
43801;SDS011;29429;51.074;13.764;2023-06-22T12:05:52;6.43;;;5.78;;
43801;SDS011;29429;51.074;13.764;2023-06-22T12:08:20;6.15;;;5.55;;
43801;SDS011;29429;51.074;13.764;2023-06-22T12:10:49;6.05;;;5.55;;
43801;SDS011;29429;51.074;13.764;2023-06-22T12:13:16;6.70;;;6.10;;
43801;SDS011;29429;51.074;13.764;2023-06-22T12:15:44;6.50;;;6.00;;
43801;SDS011;29429;51.074;13.764;2023-06-22T12:18:11;7.07;;;6.38;;
43801;SDS011;29429;51.074;13.764;2023-06-22T12:20:41;6.13;;;5.53;;
43801;SDS011;29429;51.074;13.764;2023-06-22T12:23:09;8.15;;;6.50;;
43801;SDS011;29429;51.074;13.764;2023-06-22T12:25:36;6.82;;;6.18;;
43801;SDS011;29429;51.074;13.764;2023-06-22T12:28:04;7.70;;;6.30;;
43801;SDS011;29429;51.074;13.764;2023-06-22T12:30:34;9.77;;;6.75;;
43801;SDS011;29429;51.074;13.764;2023-06-22T12:33:02;8.07;;;6.30;;
43801;SDS011;29429;51.074;13.764;2023-06-22T12:35:29;7.22;;;6.13;;
43801;SDS011;29429;51.074;13.764;2023-06-22T12:37:57;6.55;;;5.95;;
43801;SDS011;29429;51.074;13.764;2023-06-22T12:40:25;6.88;;;6.07;;
43801;SDS011;29429;51.074;13.764;2023-06-22T12:42:52;6.57;;;5.97;;
43801;SDS011;29429;51.074;13.764;2023-06-22T12:45:20;7.57;;;6.32;;
43801;SDS011;29429;51.074;13.764;2023-06-22T12:47:48;7.18;;;6.10;;
43801;SDS011;29429;51.074;13.764;2023-06-22T12:50:16;8.73;;;6.50;;
43801;SDS011;29429;51.074;13.764;2023-06-22T12:52:43;7.18;;;6.47;;
43801;SDS011;29429;51.074;13.764;2023-06-22T12:55:11;6.88;;;6.18;;
43801;SDS011;29429;51.074;13.764;2023-06-22T12:57:38;6.40;;;5.80;;
43801;SDS011;29429;51.074;13.764;2023-06-22T13:00:06;8.25;;;6.25;;
43801;SDS011;29429;51.074;13.764;2023-06-22T13:02:36;6.80;;;6.13;;
43801;SDS011;29429;51.074;13.764;2023-06-22T13:05:04;13.85;;;6.75;;
43801;SDS011;29429;51.074;13.764;2023-06-22T13:07:31;7.72;;;6.45;;
43801;SDS011;29429;51.074;13.764;2023-06-22T13:10:00;8.07;;;6.28;;
43801;SDS011;29429;51.074;13.764;2023-06-22T13:12:27;6.70;;;6.10;;
43801;SDS011;29429;51.074;13.764;2023-06-22T13:14:55;7.70;;;6.03;;
43801;SDS011;29429;51.074;13.764;2023-06-22T13:17:22;9.30;;;6.63;;
43801;SDS011;29429;51.074;13.764;2023-06-22T13:19:50;8.93;;;6.05;;
43801;SDS011;29429;51.074;13.764;2023-06-22T13:22:28;7.15;;;5.90;;
43801;SDS011;29429;51.074;13.764;2023-06-22T13:24:57;7.22;;;5.63;;
43801;SDS011;29429;51.074;13.764;2023-06-22T13:27:26;7.25;;;6.55;;
43801;SDS011;29429;51.074;13.764;2023-06-22T13:29:53;7.05;;;6.35;;
43801;SDS011;29429;51.074;13.764;2023-06-22T13:32:21;6.97;;;6.28;;
43801;SDS011;29429;51.074;13.764;2023-06-22T13:34:48;6.70;;;6.00;;
43801;SDS011;29429;51.074;13.764;2023-06-22T13:37:17;8.93;;;7.00;;
43801;SDS011;29429;51.074;13.764;2023-06-22T13:39:45;7.13;;;6.43;;
43801;SDS011;29429;51.074;13.764;2023-06-22T13:42:13;8.15;;;6.47;;
43801;SDS011;29429;51.074;13.764;2023-06-22T13:44:40;7.40;;;6.25;;
43801;SDS011;29429;51.074;13.764;2023-06-22T13:47:08;6.60;;;5.60;;
43801;SDS011;29429;51.074;13.764;2023-06-22T13:49:35;7.82;;;6.53;;
43801;SDS011;29429;51.074;13.764;2023-06-22T13:52:03;6.65;;;5.97;;
43801;SDS011;29429;51.074;13.764;2023-06-22T13:54:33;7.15;;;6.45;;
43801;SDS011;29429;51.074;13.764;2023-06-22T13:57:01;6.80;;;6.15;;
43801;SDS011;29429;51.074;13.764;2023-06-22T13:59:29;6.40;;;5.78;;
43801;SDS011;29429;51.074;13.764;2023-06-22T14:01:57;6.45;;;5.85;;
43801;SDS011;29429;51.074;13.764;2023-06-22T14:04:24;6.95;;;5.97;;
43801;SDS011;29429;51.074;13.764;2023-06-22T14:06:52;6.40;;;5.80;;
43801;SDS011;29429;51.074;13.764;2023-06-22T14:09:22;6.68;;;6.03;;
43801;SDS011;29429;51.074;13.764;2023-06-22T14:11:50;6.50;;;5.80;;
43801;SDS011;29429;51.074;13.764;2023-06-22T14:14:17;7.55;;;6.70;;
43801;SDS011;29429;51.074;13.764;2023-06-22T14:16:45;6.72;;;6.03;;
43801;SDS011;29429;51.074;13.764;2023-06-22T14:19:12;8.15;;;6.68;;
43801;SDS011;29429;51.074;13.764;2023-06-22T14:21:39;7.22;;;6.55;;
43801;SDS011;29429;51.074;13.764;2023-06-22T14:24:07;6.22;;;5.63;;
43801;SDS011;29429;51.074;13.764;2023-06-22T14:26:34;7.22;;;6.53;;
43801;SDS011;29429;51.074;13.764;2023-06-22T14:29:02;6.50;;;5.90;;
43801;SDS011;29429;51.074;13.764;2023-06-22T14:31:30;6.57;;;5.90;;
43801;SDS011;29429;51.074;13.764;2023-06-22T14:33:58;6.68;;;5.95;;
43801;SDS011;29429;51.074;13.764;2023-06-22T14:36:25;6.28;;;5.68;;
43801;SDS011;29429;51.074;13.764;2023-06-22T14:38:52;5.93;;;5.32;;
43801;SDS011;29429;51.074;13.764;2023-06-22T14:41:20;6.75;;;6.10;;
43801;SDS011;29429;51.074;13.764;2023-06-22T14:43:48;7.10;;;6.40;;
43801;SDS011;29429;51.074;13.764;2023-06-22T14:46:18;6.80;;;6.20;;
43801;SDS011;29429;51.074;13.764;2023-06-22T14:48:46;7.90;;;7.18;;
43801;SDS011;29429;51.074;13.764;2023-06-22T14:51:13;7.60;;;6.90;;
43801;SDS011;29429;51.074;13.764;2023-06-22T14:53:43;7.05;;;6.30;;